This is the latest recevied weather packets stored in our database for station/object K7CTM. If no packets are shown the sender has not sent any weather packets the latest 10 day(s).
| Time | Temp. | Humidity | Pressure | Rain* | Wind** | Luminosity | Snow |
|---|---|---|---|---|---|---|---|
| 1788529824 | 10.56° C | 59% | 1020 hPa | 0 mm | - | 75 W/m² | - |
| 1788529519 | 11.11° C | 56% | 1019.9 hPa | 0 mm | - | 66 W/m² | - |
| 1788529213 | 11.67° C | 55% | 1019.8 hPa | 0 mm | - | 57 W/m² | - |
| 1788528907 | 12.22° C | 52% | 1019.8 hPa | 0 mm | - | 48 W/m² | - |
| 1788528604 | 12.22° C | 52% | 1019.9 hPa | 0 mm | - | 40 W/m² | - |
| 1788528298 | 12.78° C | 51% | 1019.8 hPa | 0 mm | - | 33 W/m² | - |
| 1788527998 | 12.78° C | 50% | 1019.6 hPa | 0 mm | - | 29 W/m² | - |
| 1788527693 | 12.22° C | 52% | 1019.6 hPa | 0 mm | - | 25 W/m² | - |
| 1788527389 | 12.78° C | 50% | 1019.6 hPa | 0 mm | - | 21 W/m² | - |
| 1788527087 | 11.67° C | 52% | 1019.4 hPa | 0 mm | - | 18 W/m² | - |
| 1788526782 | 11.67° C | 53% | 1019.7 hPa | 0 mm | - | 14 W/m² | - |
| 1788526479 | 11.11° C | 54% | 1019.6 hPa | 0 mm | - | 11 W/m² | - |
| 1788526178 | 11.67° C | 53% | 1019.5 hPa | 0 mm | - | 7 W/m² | - |
| 1788525874 | 11.67° C | 52% | 1019.6 hPa | 0 mm | - | 5 W/m² | - |
| 1788525570 | 11.67° C | 53% | 1019.1 hPa | 0 mm | - | 3 W/m² | - |
| 1788525270 | 11.67° C | 53% | 1019.3 hPa | 0 mm | - | 1 W/m² | - |
| 1788524997 | 11.67° C | 54% | 1019.4 hPa | 0 mm | - | 1 W/m² | - |
| 1788524665 | 11.11° C | 55% | 1019 hPa | 0 mm | - | 0 W/m² | - |
| 1788524360 | 11.67° C | 55% | 1019 hPa | 0 mm | - | 0 W/m² | - |
| 1788524056 | 12.22° C | 53% | 1019.3 hPa | 0 mm | - | 0 W/m² | - |
| 1788523753 | 13.33° C | 48% | 1019.1 hPa | 0 mm | - | 0 W/m² | - |
| 1788523448 | 13.33° C | 48% | 1019.3 hPa | 0 mm | - | 0 W/m² | - |
| 1788523143 | 13.33° C | 47% | 1018.9 hPa | 0 mm | - | 0 W/m² | - |
| 1788522838 | 13.89° C | 47% | 1019.1 hPa | 0 mm | - | 0 W/m² | - |
| 1788522533 | 13.89° C | 47% | 1018.9 hPa | 0 mm | - | 0 W/m² | - |
* Rain latest hour (hover to see other rain measurements)
** Current wind speed in m/s (hover to see current wind gust speed)